Terminal Aerodrome Forecast
Issued by NWS Brownsville, TX

Home | Current Version | Previous Version | Text Only | Print | Product List | Glossary On
Versions: 1 2 3 4 5 6 7 8 9 10 11 12 13 14 15 16 17 18 19 20 21 22 23 24 25 26 27 28 29 30 31 32 33 34 35 36 37 38
000
FTUS44 KBRO 232334
TAFBRO
TAF
KBRO 232334Z 2400/2424 11013KT P6SM FEW022 SCT027 BKN035
     FM240200 11010KT P6SM BKN025
     FM240900 15012KT P6SM OVC015
      TEMPO 2409/2413 BKN009
     FM241500 16015G20KT P6SM BKN015
     FM241800 15020G26KT P6SM OVC025=

USA.gov is the U.S. government's official web portal to all federal, state and local government web resources and services.